LKE9976 ZSPD-ZSAM
Flight info
| Callsign | LKE9976 |
|---|---|
| Flight time | N/A |
| Altitude | 25600 |
| Route | NXD91D/35R NXD W131 AKDIM A470 ENVEN ENVEN8X |
| Aircraft | B738/M-SDE2E3FGHIRWXY/LB1 |
Departure
| Time | N/A |
|---|---|
| Airport | Shanghai Pudong International Airport (ZSPD) |
Arrival
| Time | 2026-05-07 10:30 |
|---|---|
| Airport | Xiamen Gaoqi International Airport (ZSAM) |
| Time | Latitude | Longitude | Altitude | Speed | Heading |
|---|---|---|---|---|---|
| 2026-05-07 09:31 | 29.96911 | 119.74165 | 25530 ft | 447 kts | 215° |
| 2026-05-07 09:31 | 29.94239 | 119.72375 | 25535 ft | 435 kts | 215° |
| 2026-05-07 09:32 | 29.91616 | 119.70610 | 25546 ft | 437 kts | 215° |
| 2026-05-07 09:32 | 29.88944 | 119.68855 | 25551 ft | 440 kts | 214° |
| 2026-05-07 09:32 | 29.86175 | 119.67324 | 25552 ft | 445 kts | 207° |
| 2026-05-07 09:32 | 29.83191 | 119.66373 | 25556 ft | 450 kts | 196° |
| 2026-05-07 09:33 | 29.80054 | 119.65920 | 25555 ft | 456 kts | 191° |
| 2026-05-07 09:33 | 29.76871 | 119.65685 | 25562 ft | 459 kts | 188° |
| 2026-05-07 09:33 | 29.73693 | 119.65534 | 25566 ft | 457 kts | 188° |
| 2026-05-07 09:33 | 29.70505 | 119.65389 | 25561 ft | 459 kts | 188° |
| 2026-05-07 09:34 | 29.67312 | 119.65231 | 25560 ft | 459 kts | 188° |
| 2026-05-07 09:34 | 29.64116 | 119.65057 | 25555 ft | 458 kts | 188° |
| 2026-05-07 09:34 | 29.60928 | 119.64885 | 25558 ft | 458 kts | 188° |
| 2026-05-07 09:34 | 29.57769 | 119.64771 | 25556 ft | 461 kts | 187° |
| 2026-05-07 09:35 | 29.54535 | 119.64693 | 25555 ft | 460 kts | 186° |
| 2026-05-07 09:35 | 29.51336 | 119.64596 | 25553 ft | 459 kts | 187° |
| 2026-05-07 09:35 | 29.48138 | 119.64449 | 25556 ft | 458 kts | 188° |
| 2026-05-07 09:35 | 29.44983 | 119.64275 | 25554 ft | 459 kts | 188° |
| 2026-05-07 09:36 | 29.41789 | 119.64085 | 25559 ft | 460 kts | 188° |
| 2026-05-07 09:36 | 29.38571 | 119.63887 | 25550 ft | 458 kts | 189° |
| 2026-05-07 09:36 | 29.35404 | 119.63689 | 25546 ft | 460 kts | 189° |
| 2026-05-07 09:36 | 29.32195 | 119.63487 | 25543 ft | 458 kts | 189° |
| 2026-05-07 09:37 | 29.29021 | 119.63288 | 25538 ft | 458 kts | 189° |
| 2026-05-07 09:37 | 29.25820 | 119.63086 | 25529 ft | 458 kts | 189° |
| 2026-05-07 09:37 | 29.22634 | 119.62886 | 25525 ft | 458 kts | 188° |
| 2026-05-07 09:37 | 29.19488 | 119.62691 | 25528 ft | 459 kts | 188° |
| 2026-05-07 09:38 | 29.16266 | 119.62491 | 25524 ft | 459 kts | 188° |
| 2026-05-07 09:38 | 29.13083 | 119.62296 | 25525 ft | 459 kts | 188° |
| 2026-05-07 09:38 | 29.09884 | 119.62102 | 25517 ft | 458 kts | 188° |
| 2026-05-07 09:38 | 29.06703 | 119.61906 | 25517 ft | 460 kts | 188° |
| 2026-05-07 09:39 | 29.03498 | 119.61707 | 25521 ft | 459 kts | 188° |
| 2026-05-07 09:39 | 29.00331 | 119.61510 | 25525 ft | 460 kts | 188° |
| 2026-05-07 09:39 | 28.97121 | 119.61311 | 25520 ft | 459 kts | 188° |
| 2026-05-07 09:39 | 28.93942 | 119.61112 | 25527 ft | 459 kts | 189° |
| 2026-05-07 09:40 | 28.90734 | 119.60912 | 25539 ft | 458 kts | 189° |
| 2026-05-07 09:40 | 28.87534 | 119.60713 | 25548 ft | 460 kts | 188° |
| 2026-05-07 09:40 | 28.84347 | 119.60513 | 25559 ft | 461 kts | 189° |
| 2026-05-07 09:40 | 28.81160 | 119.60316 | 25569 ft | 458 kts | 189° |
| 2026-05-07 09:41 | 28.77945 | 119.60115 | 25579 ft | 461 kts | 188° |
| 2026-05-07 09:41 | 28.74754 | 119.59915 | 25587 ft | 460 kts | 188° |
| 2026-05-07 09:41 | 28.71541 | 119.59715 | 25587 ft | 462 kts | 188° |
| 2026-05-07 09:41 | 28.68356 | 119.59518 | 25579 ft | 461 kts | 188° |
| 2026-05-07 09:42 | 28.65130 | 119.59319 | 25575 ft | 460 kts | 188° |
| 2026-05-07 09:42 | 28.61947 | 119.59124 | 25570 ft | 460 kts | 188° |
| 2026-05-07 09:42 | 28.58751 | 119.58926 | 25562 ft | 462 kts | 188° |
| 2026-05-07 09:42 | 28.55544 | 119.58730 | 25552 ft | 460 kts | 188° |
| 2026-05-07 09:43 | 28.52310 | 119.58533 | 25543 ft | 461 kts | 188° |
| 2026-05-07 09:43 | 28.49125 | 119.58337 | 25537 ft | 462 kts | 188° |
| 2026-05-07 09:43 | 28.45929 | 119.58141 | 25535 ft | 459 kts | 188° |
| 2026-05-07 09:43 | 28.42715 | 119.57950 | 25540 ft | 461 kts | 188° |
| 2026-05-07 09:44 | 28.39504 | 119.57766 | 25540 ft | 461 kts | 188° |
| 2026-05-07 09:44 | 28.36328 | 119.57589 | 25545 ft | 460 kts | 188° |
| 2026-05-07 09:44 | 28.33094 | 119.57411 | 25550 ft | 461 kts | 188° |
| 2026-05-07 09:44 | 28.29893 | 119.57237 | 25552 ft | 461 kts | 188° |
| 2026-05-07 09:45 | 28.26724 | 119.57066 | 25558 ft | 460 kts | 188° |
| 2026-05-07 09:45 | 28.23475 | 119.56889 | 25557 ft | 461 kts | 188° |
| 2026-05-07 09:45 | 28.20314 | 119.56718 | 25562 ft | 462 kts | 188° |
| 2026-05-07 09:45 | 28.17100 | 119.56543 | 25570 ft | 461 kts | 188° |
| 2026-05-07 09:46 | 28.13892 | 119.56368 | 25579 ft | 461 kts | 188° |
| 2026-05-07 09:46 | 28.10674 | 119.56190 | 25583 ft | 460 kts | 188° |
| 2026-05-07 09:46 | 28.07485 | 119.56042 | 25591 ft | 461 kts | 187° |
| 2026-05-07 09:46 | 28.04275 | 119.55956 | 25593 ft | 460 kts | 186° |
| 2026-05-07 09:47 | 28.01040 | 119.55907 | 25603 ft | 464 kts | 186° |
| 2026-05-07 09:47 | 27.97831 | 119.55873 | 25611 ft | 461 kts | 186° |
| 2026-05-07 09:47 | 27.94618 | 119.55843 | 25603 ft | 464 kts | 186° |
| 2026-05-07 09:47 | 27.91394 | 119.55814 | 25598 ft | 462 kts | 186° |
| 2026-05-07 09:48 | 27.88140 | 119.55794 | 25596 ft | 462 kts | 185° |
| 2026-05-07 09:48 | 27.84926 | 119.55784 | 25592 ft | 462 kts | 185° |
| 2026-05-07 09:48 | 27.81703 | 119.55775 | 25586 ft | 462 kts | 185° |
| 2026-05-07 09:48 | 27.78515 | 119.55768 | 25579 ft | 460 kts | 185° |
| 2026-05-07 09:49 | 27.75324 | 119.55759 | 25574 ft | 462 kts | 185° |
| 2026-05-07 09:49 | 27.72088 | 119.55746 | 25574 ft | 463 kts | 185° |
| 2026-05-07 09:49 | 27.68878 | 119.55733 | 25583 ft | 461 kts | 185° |
| 2026-05-07 09:49 | 27.65656 | 119.55717 | 25589 ft | 462 kts | 185° |
| 2026-05-07 09:50 | 27.62423 | 119.55698 | 25596 ft | 462 kts | 185° |
| 2026-05-07 09:50 | 27.59244 | 119.55682 | 25603 ft | 460 kts | 185° |
| 2026-05-07 09:50 | 27.56006 | 119.55661 | 25608 ft | 461 kts | 185° |
| 2026-05-07 09:50 | 27.52813 | 119.55643 | 25620 ft | 461 kts | 185° |
| 2026-05-07 09:51 | 27.49573 | 119.55624 | 25630 ft | 461 kts | 185° |
| 2026-05-07 09:51 | 27.46365 | 119.55608 | 25620 ft | 461 kts | 185° |
| 2026-05-07 09:51 | 27.43148 | 119.55593 | 25613 ft | 463 kts | 185° |
| 2026-05-07 09:51 | 27.39943 | 119.55582 | 25607 ft | 460 kts | 185° |
| 2026-05-07 09:52 | 27.36744 | 119.55574 | 25600 ft | 460 kts | 185° |
| 2026-05-07 09:52 | 27.33505 | 119.55570 | 25592 ft | 462 kts | 185° |
| 2026-05-07 09:52 | 27.30294 | 119.55568 | 25583 ft | 459 kts | 185° |
| 2026-05-07 09:52 | 27.27098 | 119.55566 | 25576 ft | 459 kts | 185° |
| 2026-05-07 09:53 | 27.23917 | 119.55561 | 25571 ft | 459 kts | 185° |
| 2026-05-07 09:53 | 27.20727 | 119.55548 | 25566 ft | 461 kts | 185° |
| 2026-05-07 09:53 | 27.17527 | 119.55530 | 25559 ft | 460 kts | 185° |
| 2026-05-07 09:53 | 27.14307 | 119.55510 | 25562 ft | 462 kts | 185° |
| 2026-05-07 09:54 | 27.11072 | 119.55488 | 25561 ft | 462 kts | 185° |
| 2026-05-07 09:54 | 27.07864 | 119.55466 | 25559 ft | 460 kts | 185° |
| 2026-05-07 09:54 | 27.04646 | 119.55443 | 25560 ft | 462 kts | 185° |
| 2026-05-07 09:54 | 27.01469 | 119.55423 | 25556 ft | 458 kts | 185° |
| 2026-05-07 09:55 | 26.98269 | 119.55402 | 25555 ft | 458 kts | 185° |
| 2026-05-07 09:55 | 26.95053 | 119.55382 | 25552 ft | 459 kts | 185° |
| 2026-05-07 09:55 | 26.91851 | 119.55360 | 25552 ft | 459 kts | 185° |
| 2026-05-07 09:55 | 26.88653 | 119.55341 | 25555 ft | 457 kts | 185° |
| 2026-05-07 09:56 | 26.85479 | 119.55321 | 25552 ft | 460 kts | 185° |
| 2026-05-07 09:56 | 26.82258 | 119.55302 | 25554 ft | 459 kts | 185° |
| 2026-05-07 09:56 | 26.79056 | 119.55281 | 25553 ft | 459 kts | 185° |
| 2026-05-07 09:56 | 26.75864 | 119.55261 | 25547 ft | 459 kts | 185° |
| 2026-05-07 09:57 | 26.72670 | 119.55241 | 25546 ft | 458 kts | 184° |
| 2026-05-07 09:57 | 26.69447 | 119.55222 | 25543 ft | 460 kts | 185° |
| 2026-05-07 09:57 | 26.66270 | 119.55202 | 25539 ft | 459 kts | 185° |
| 2026-05-07 09:57 | 26.63076 | 119.55182 | 25534 ft | 458 kts | 185° |
| 2026-05-07 09:58 | 26.59901 | 119.55163 | 25532 ft | 459 kts | 185° |
| 2026-05-07 09:58 | 26.56711 | 119.55142 | 25525 ft | 457 kts | 184° |
| 2026-05-07 09:58 | 26.53499 | 119.55122 | 25524 ft | 457 kts | 184° |
| 2026-05-07 09:58 | 26.50327 | 119.55102 | 25525 ft | 460 kts | 185° |
| 2026-05-07 09:59 | 26.47107 | 119.55081 | 25523 ft | 460 kts | 184° |
| 2026-05-07 09:59 | 26.43937 | 119.55061 | 25522 ft | 459 kts | 185° |
| 2026-05-07 09:59 | 26.40715 | 119.55042 | 25519 ft | 456 kts | 184° |
| 2026-05-07 09:59 | 26.37572 | 119.55022 | 25518 ft | 459 kts | 185° |
| 2026-05-07 10:00 | 26.34368 | 119.54991 | 25518 ft | 460 kts | 185° |
| 2026-05-07 10:00 | 26.31161 | 119.54955 | 25516 ft | 459 kts | 185° |
| 2026-05-07 10:00 | 26.27970 | 119.54916 | 25513 ft | 459 kts | 185° |
| 2026-05-07 10:00 | 26.24783 | 119.54784 | 25512 ft | 457 kts | 188° |
| 2026-05-07 10:01 | 26.21635 | 119.54392 | 25509 ft | 453 kts | 193° |
| 2026-05-07 10:01 | 26.18545 | 119.53696 | 25503 ft | 450 kts | 197° |
| 2026-05-07 10:01 | 26.15515 | 119.52805 | 25501 ft | 450 kts | 200° |
| 2026-05-07 10:01 | 26.12489 | 119.51803 | 25499 ft | 449 kts | 201° |
| 2026-05-07 10:02 | 26.09519 | 119.50772 | 25497 ft | 449 kts | 201° |
| 2026-05-07 10:02 | 26.06569 | 119.49731 | 25496 ft | 448 kts | 201° |
| 2026-05-07 10:02 | 26.03586 | 119.48678 | 25494 ft | 450 kts | 201° |
| 2026-05-07 10:02 | 26.00590 | 119.47626 | 25492 ft | 448 kts | 201° |
| 2026-05-07 10:03 | 25.97614 | 119.46587 | 25491 ft | 449 kts | 201° |
| 2026-05-07 10:03 | 25.94633 | 119.45555 | 25493 ft | 449 kts | 201° |
| 2026-05-07 10:03 | 25.91621 | 119.44518 | 25496 ft | 448 kts | 201° |
| 2026-05-07 10:03 | 25.88653 | 119.43502 | 25501 ft | 450 kts | 201° |
| 2026-05-07 10:04 | 25.85649 | 119.42477 | 25504 ft | 449 kts | 201° |
| 2026-05-07 10:04 | 25.82688 | 119.41470 | 25509 ft | 449 kts | 201° |
| 2026-05-07 10:04 | 25.79676 | 119.40446 | 25516 ft | 448 kts | 201° |
| 2026-05-07 10:04 | 25.76769 | 119.39283 | 25523 ft | 446 kts | 207° |
| 2026-05-07 10:05 | 25.74029 | 119.37701 | 25529 ft | 444 kts | 216° |
| 2026-05-07 10:05 | 25.71558 | 119.35616 | 25531 ft | 439 kts | 224° |
| 2026-05-07 10:05 | 25.69347 | 119.33309 | 25532 ft | 437 kts | 227° |
| 2026-05-07 10:05 | 25.67244 | 119.30912 | 25531 ft | 435 kts | 229° |
| 2026-05-07 10:06 | 25.65172 | 119.28455 | 25529 ft | 437 kts | 230° |
| 2026-05-07 10:06 | 25.63106 | 119.25971 | 25529 ft | 437 kts | 230° |
| 2026-05-07 10:06 | 25.61059 | 119.23507 | 25527 ft | 438 kts | 230° |
| 2026-05-07 10:06 | 25.58990 | 119.21026 | 25526 ft | 436 kts | 230° |
| 2026-05-07 10:07 | 25.56943 | 119.18585 | 25529 ft | 438 kts | 230° |
| 2026-05-07 10:07 | 25.54857 | 119.16114 | 25533 ft | 436 kts | 230° |
| 2026-05-07 10:07 | 25.52765 | 119.13644 | 25534 ft | 438 kts | 230° |
| 2026-05-07 10:07 | 25.50690 | 119.11201 | 25535 ft | 439 kts | 229° |
| 2026-05-07 10:08 | 25.48599 | 119.08746 | 25537 ft | 437 kts | 229° |
| 2026-05-07 10:08 | 25.46526 | 119.06318 | 25541 ft | 436 kts | 229° |
| 2026-05-07 10:08 | 25.44443 | 119.03882 | 25541 ft | 436 kts | 229° |
| 2026-05-07 10:08 | 25.42358 | 119.01444 | 25540 ft | 437 kts | 229° |
| 2026-05-07 10:09 | 25.40259 | 118.98991 | 25538 ft | 439 kts | 229° |
| 2026-05-07 10:09 | 25.38180 | 118.96564 | 25534 ft | 436 kts | 229° |
| 2026-05-07 10:09 | 25.36087 | 118.94123 | 25529 ft | 438 kts | 229° |
| 2026-05-07 10:09 | 25.33991 | 118.91678 | 25523 ft | 439 kts | 229° |
| 2026-05-07 10:10 | 25.31920 | 118.89233 | 25517 ft | 435 kts | 230° |
| 2026-05-07 10:10 | 25.29853 | 118.86746 | 25512 ft | 437 kts | 230° |
| 2026-05-07 10:10 | 25.27899 | 118.84373 | 25507 ft | 438 kts | 230° |
| 2026-05-07 10:10 | 25.25859 | 118.81889 | 25502 ft | 437 kts | 230° |
| 2026-05-07 10:11 | 25.23798 | 118.79379 | 25501 ft | 446 kts | 230° |
| 2026-05-07 10:11 | 25.21673 | 118.76791 | 25497 ft | 460 kts | 230° |
| 2026-05-07 10:11 | 25.19519 | 118.74174 | 25114 ft | 462 kts | 230° |
| 2026-05-07 10:11 | 25.17386 | 118.71594 | 24518 ft | 454 kts | 230° |
| 2026-05-07 10:12 | 25.15261 | 118.69030 | 23715 ft | 450 kts | 230° |
| 2026-05-07 10:12 | 25.13156 | 118.66491 | 22762 ft | 450 kts | 230° |
| 2026-05-07 10:12 | 25.11070 | 118.63976 | 21801 ft | 449 kts | 229° |
| 2026-05-07 10:12 | 25.08967 | 118.61446 | 21328 ft | 436 kts | 229° |
| 2026-05-07 10:13 | 25.06923 | 118.59036 | 20857 ft | 426 kts | 229° |
| 2026-05-07 10:13 | 25.04911 | 118.56715 | 20320 ft | 417 kts | 228° |
| 2026-05-07 10:13 | 25.02917 | 118.54441 | 19770 ft | 409 kts | 228° |
| 2026-05-07 10:13 | 25.00953 | 118.52207 | 19230 ft | 415 kts | 228° |
| 2026-05-07 10:14 | 24.98915 | 118.49884 | 18658 ft | 426 kts | 228° |
| 2026-05-07 10:14 | 24.96843 | 118.47520 | 18081 ft | 421 kts | 228° |
| 2026-05-07 10:14 | 24.94843 | 118.45238 | 17526 ft | 411 kts | 228° |
| 2026-05-07 10:14 | 24.92881 | 118.42999 | 16986 ft | 402 kts | 229° |
| 2026-05-07 10:15 | 24.90960 | 118.40805 | 16457 ft | 393 kts | 228° |
| 2026-05-07 10:15 | 24.89073 | 118.38648 | 15932 ft | 392 kts | 229° |
| 2026-05-07 10:15 | 24.87176 | 118.36472 | 15415 ft | 405 kts | 228° |
| 2026-05-07 10:15 | 24.85216 | 118.34229 | 14859 ft | 397 kts | 228° |
| 2026-05-07 10:16 | 24.83325 | 118.32069 | 14332 ft | 387 kts | 228° |
| 2026-05-07 10:16 | 24.81482 | 118.29965 | 13815 ft | 378 kts | 228° |
| 2026-05-07 10:16 | 24.79648 | 118.27872 | 13313 ft | 385 kts | 228° |
| 2026-05-07 10:16 | 24.77779 | 118.25734 | 12790 ft | 394 kts | 227° |
| 2026-05-07 10:17 | 24.75883 | 118.23571 | 12261 ft | 387 kts | 227° |
| 2026-05-07 10:17 | 24.74041 | 118.21474 | 11746 ft | 377 kts | 228° |
| 2026-05-07 10:17 | 24.72251 | 118.19438 | 11258 ft | 367 kts | 228° |
| 2026-05-07 10:17 | 24.70483 | 118.17426 | 10760 ft | 358 kts | 228° |
| 2026-05-07 10:18 | 24.68773 | 118.15481 | 10292 ft | 350 kts | 228° |
| 2026-05-07 10:18 | 24.67111 | 118.13590 | 9896 ft | 340 kts | 228° |
| 2026-05-07 10:18 | 24.65497 | 118.11753 | 9620 ft | 328 kts | 227° |
| 2026-05-07 10:18 | 24.63908 | 118.09943 | 9161 ft | 323 kts | 227° |
| 2026-05-07 10:19 | 24.62363 | 118.08186 | 8751 ft | 318 kts | 227° |
| 2026-05-07 10:19 | 24.60843 | 118.06456 | 8417 ft | 310 kts | 227° |
| 2026-05-07 10:19 | 24.59382 | 118.04798 | 8310 ft | 295 kts | 228° |
| 2026-05-07 10:19 | 24.57980 | 118.03207 | 8219 ft | 280 kts | 228° |
| 2026-05-07 10:20 | 24.56656 | 118.01704 | 8133 ft | 267 kts | 229° |
| 2026-05-07 10:20 | 24.55412 | 118.00249 | 7925 ft | 260 kts | 229° |
| 2026-05-07 10:20 | 24.54190 | 117.98768 | 7618 ft | 258 kts | 230° |
| 2026-05-07 10:20 | 24.53006 | 117.97323 | 7327 ft | 255 kts | 230° |
| 2026-05-07 10:21 | 24.51815 | 117.95879 | 7035 ft | 253 kts | 230° |
| 2026-05-07 10:21 | 24.50628 | 117.94449 | 6744 ft | 250 kts | 230° |
| 2026-05-07 10:21 | 24.49456 | 117.93039 | 6448 ft | 247 kts | 230° |
| 2026-05-07 10:21 | 24.48331 | 117.91687 | 6184 ft | 236 kts | 230° |
| 2026-05-07 10:22 | 24.47249 | 117.90388 | 5943 ft | 224 kts | 230° |
| 2026-05-07 10:22 | 24.46221 | 117.89148 | 5719 ft | 211 kts | 230° |
| 2026-05-07 10:22 | 24.45275 | 117.88003 | 5636 ft | 195 kts | 230° |
| 2026-05-07 10:22 | 24.44337 | 117.86962 | 5503 ft | 191 kts | 217° |
| 2026-05-07 10:23 | 24.43085 | 117.86435 | 5311 ft | 196 kts | 186° |
| 2026-05-07 10:23 | 24.41733 | 117.86584 | 5110 ft | 198 kts | 166° |
| 2026-05-07 10:23 | 24.40453 | 117.87184 | 4899 ft | 198 kts | 144° |
| 2026-05-07 10:23 | 24.39567 | 117.88311 | 4716 ft | 198 kts | 115° |
| 2026-05-07 10:24 | 24.39161 | 117.89748 | 4483 ft | 198 kts | 96° |
| 2026-05-07 10:24 | 24.39245 | 117.91220 | 4275 ft | 196 kts | 68° |
| 2026-05-07 10:24 | 24.39912 | 117.92525 | 4086 ft | 192 kts | 53° |
| 2026-05-07 10:24 | 24.40708 | 117.93700 | 4018 ft | 193 kts | 51° |
| 2026-05-07 10:25 | 24.41530 | 117.94871 | 3863 ft | 195 kts | 51° |
| 2026-05-07 10:25 | 24.42350 | 117.96019 | 3542 ft | 193 kts | 51° |
| 2026-05-07 10:25 | 24.43179 | 117.97165 | 3276 ft | 186 kts | 51° |
| 2026-05-07 10:25 | 24.43971 | 117.98264 | 3031 ft | 181 kts | 50° |
| 2026-05-07 10:26 | 24.44734 | 117.99322 | 2797 ft | 176 kts | 51° |
| 2026-05-07 10:26 | 24.45491 | 118.00369 | 2562 ft | 172 kts | 52° |
| 2026-05-07 10:26 | 24.46220 | 118.01383 | 2341 ft | 169 kts | 52° |
| 2026-05-07 10:26 | 24.46946 | 118.02392 | 2115 ft | 166 kts | 52° |
| 2026-05-07 10:27 | 24.47646 | 118.03364 | 1894 ft | 159 kts | 53° |
| 2026-05-07 10:27 | 24.48313 | 118.04287 | 1683 ft | 148 kts | 53° |
| 2026-05-07 10:27 | 24.48924 | 118.05132 | 1573 ft | 139 kts | 53° |
| 2026-05-07 10:27 | 24.49528 | 118.05978 | 1325 ft | 139 kts | 54° |
| 2026-05-07 10:28 | 24.50121 | 118.06796 | 1151 ft | 137 kts | 54° |
| 2026-05-07 10:28 | 24.50722 | 118.07629 | 962 ft | 138 kts | 55° |
| 2026-05-07 10:28 | 24.51312 | 118.08457 | 782 ft | 138 kts | 55° |
| 2026-05-07 10:28 | 24.51912 | 118.09291 | 611 ft | 138 kts | 54° |
| 2026-05-07 10:29 | 24.52509 | 118.10111 | 429 ft | 137 kts | 55° |
| 2026-05-07 10:29 | 24.53109 | 118.10942 | 242 ft | 138 kts | 54° |
| 2026-05-07 10:29 | 24.53704 | 118.11767 | 77 ft | 131 kts | 54° |
| 2026-05-07 10:30 | 24.54491 | 118.12903 | 75 ft | 48 kts | 69° |
| 2026-05-07 10:30 | 24.54533 | 118.13124 | 75 ft | 26 kts | 85° |
| 2026-05-07 10:30 | 24.54594 | 118.13309 | 75 ft | 25 kts | 55° |